Time;durP1;ratioP1;P1;durP2;ratioP2;P2;SDS_P1;SDS_P2;PMS_P1;PMS_P2;Temp;Humidity;BMP_temperature;BMP_pressure;BME280_temperature;BME280_humidity;BME280_pressure;Samples;Min_cycle;Max_cycle;Signal;HPM_P1;HPM_P2
2023/10/09 00:01:30;;;;;;;6.35;4.20;;;;;;;-143.29;100.00;62188.47;5050462;28;20502;-90
2023/10/09 00:03:56;;;;;;;6.78;3.85;;;;;;;-143.29;100.00;62188.47;5051232;28;20040;-89
2023/10/09 00:06:36;;;;;;;7.25;4.60;;;;;;;-143.29;100.00;62188.47;5050650;28;20025;-89
2023/10/09 00:09:25;;;;;;;6.20;3.80;;;;;;;-143.29;100.00;62188.47;5051550;28;20025;-90
2023/10/09 00:11:48;;;;;;;8.13;5.00;;;;;;;-143.29;100.00;62188.47;5051121;28;20483;-90
2023/10/09 00:14:15;;;;;;;8.43;4.28;;;;;;;-143.29;100.00;62188.47;5050001;28;20458;-89
2023/10/09 00:16:48;;;;;;;6.85;4.10;;;;;;;-143.29;100.00;62188.47;5053264;28;20021;-89
2023/10/09 00:19:19;;;;;;;7.13;4.03;;;;;;;-143.29;100.00;62188.47;5053815;28;20037;-89
2023/10/09 00:21:46;;;;;;;7.97;4.65;;;;;;;-143.29;100.00;62188.47;5051191;28;20025;-89
2023/10/09 00:24:24;;;;;;;8.60;4.68;;;;;;;-143.29;100.00;62188.47;5051294;28;20557;-89
2023/10/09 00:26:56;;;;;;;11.63;5.40;;;;;;;-143.29;100.00;62188.47;5051097;28;20027;-89
2023/10/09 00:29:21;;;;;;;10.00;5.32;;;;;;;-143.29;100.00;62188.47;5049770;28;20024;-89
2023/10/09 00:32:13;;;;;;;6.80;5.00;;;;;;;-143.29;100.00;62188.47;5051253;28;20472;-89
2023/10/09 00:34:42;;;;;;;9.38;4.95;;;;;;;-143.29;100.00;62188.47;5051072;28;20376;-90
2023/10/09 00:37:17;;;;;;;8.50;5.15;;;;;;;-143.29;100.00;62188.47;5051458;28;20083;-89
2023/10/09 00:39:43;;;;;;;8.15;5.43;;;;;;;-143.29;100.00;62188.47;5033311;28;20032;-89
2023/10/09 00:42:12;;;;;;;11.27;5.88;;;;;;;-143.29;100.00;62188.47;5051194;28;20032;-89
2023/10/09 00:44:42;;;;;;;11.32;5.82;;;;;;;-143.29;100.00;62188.47;5057728;28;20036;-89
2023/10/09 00:50:15;;;;;;;11.35;6.40;;;;;;;-143.29;100.00;62188.47;5062486;28;20037;-89
2023/10/09 00:52:47;;;;;;;9.82;5.32;;;;;;;-143.29;100.00;62188.47;5053019;28;20467;-89
2023/10/09 00:55:20;;;;;;;12.43;6.07;;;;;;;-143.29;100.00;62188.47;5071301;28;20386;-89
2023/10/09 00:57:57;;;;;;;13.68;6.13;;;;;;;-143.29;100.00;62188.47;5071174;28;20032;-89
2023/10/09 01:01:15;;;;;;;11.07;6.18;;;;;;;-143.29;100.00;62188.47;5051644;28;20106;-89
2023/10/09 01:05:52;;;;;;;9.85;6.28;;;;;;;-143.29;100.00;62188.47;5051530;28;20021;-89
2023/10/09 01:08:43;;;;;;;11.88;5.90;;;;;;;-143.29;100.00;62188.47;5050948;28;20467;-89
2023/10/09 01:11:29;;;;;;;12.18;6.30;;;;;;;-143.29;100.00;62188.47;5051021;28;20071;-89
2023/10/09 01:14:10;;;;;;;7.85;5.13;;;;;;;-143.29;100.00;62188.47;5049161;28;20028;-89
2023/10/09 01:16:36;;;;;;;11.70;6.10;;;;;;;-143.29;100.00;62188.47;5052129;28;20021;-90
2023/10/09 01:19:06;;;;;;;7.53;5.15;;;;;;;-143.29;100.00;62188.47;5054289;28;20036;-89
2023/10/09 01:21:31;;;;;;;8.65;5.40;;;;;;;-143.29;100.00;62188.47;5036717;28;20174;-89
2023/10/09 01:24:09;;;;;;;10.88;6.47;;;;;;;-143.29;100.00;62188.47;5054327;28;20586;-89
2023/10/09 01:26:39;;;;;;;10.38;5.07;;;;;;;-143.29;100.00;62188.47;5054276;28;20040;-89
2023/10/09 01:29:14;;;;;;;10.40;5.05;;;;;;;-143.29;100.00;62188.47;5052731;28;20025;-89
2023/10/09 01:31:50;;;;;;;11.65;5.55;;;;;;;-143.29;100.00;62188.47;5054395;28;20172;-89
2023/10/09 01:34:17;;;;;;;8.45;4.88;;;;;;;-143.29;100.00;62188.47;5054207;28;20064;-89
2023/10/09 01:36:42;;;;;;;9.85;6.20;;;;;;;-143.29;100.00;62188.47;5053940;28;20108;-89
2023/10/09 01:39:30;;;;;;;9.45;5.55;;;;;;;-143.29;100.00;62188.47;5053888;28;20108;-90
2023/10/09 01:42:05;;;;;;;9.50;4.47;;;;;;;-143.29;100.00;62188.47;5053434;28;20037;-89
2023/10/09 01:44:34;;;;;;;8.25;4.43;;;;;;;-143.29;100.00;62188.47;5067935;28;20035;-89
2023/10/09 01:47:26;;;;;;;8.38;4.88;;;;;;;-143.29;100.00;62188.47;5073898;28;20043;-89
2023/10/09 01:49:49;;;;;;;9.20;4.72;;;;;;;-143.29;100.00;62188.47;5073123;28;20037;-89
2023/10/09 01:52:16;;;;;;;8.50;4.35;;;;;;;-143.29;100.00;62188.47;5073660;28;20532;-89
2023/10/09 01:54:53;;;;;;;7.35;4.30;;;;;;;-143.29;100.00;62188.47;5073714;28;20060;-89
2023/10/09 01:57:22;;;;;;;8.95;5.07;;;;;;;-143.29;100.00;62188.47;5063716;28;20044;-89
2023/10/09 01:59:49;;;;;;;10.75;5.10;;;;;;;-143.29;100.00;62188.47;5052862;28;20025;-89
2023/10/09 02:02:26;;;;;;;9.15;4.25;;;;;;;-143.29;100.00;62188.47;5053551;28;20542;-89
2023/10/09 02:04:54;;;;;;;8.10;4.38;;;;;;;-143.29;100.00;62188.47;5053398;28;20041;-89
2023/10/09 02:07:22;;;;;;;6.43;4.20;;;;;;;-143.29;100.00;62188.47;5035764;28;20021;-89
2023/10/09 02:09:47;;;;;;;5.43;4.10;;;;;;;-143.29;100.00;62188.47;5053605;28;20521;-89
2023/10/09 02:12:13;;;;;;;7.25;3.92;;;;;;;-143.29;100.00;62188.47;5052304;28;20053;-89
2023/10/09 02:14:41;;;;;;;8.68;4.93;;;;;;;-143.29;100.00;62188.47;5053232;28;20025;-90
2023/10/09 02:17:20;;;;;;;8.73;4.68;;;;;;;-143.29;100.00;62188.47;5037949;28;20029;-90
2023/10/09 02:19:49;;;;;;;6.50;4.45;;;;;;;-143.29;100.00;62188.47;5035511;28;20056;-89
2023/10/09 02:22:16;;;;;;;8.73;4.25;;;;;;;-143.29;100.00;62188.47;5053270;28;20071;-90
2023/10/09 02:25:20;;;;;;;9.45;4.38;;;;;;;-143.29;100.00;62188.47;5053023;28;20036;-89
2023/10/09 02:27:53;;;;;;;9.15;4.95;;;;;;;-143.29;100.00;62188.47;5049319;28;20090;-89
2023/10/09 02:30:26;;;;;;;9.68;4.85;;;;;;;-143.29;100.00;62188.47;5051265;28;20051;-89
2023/10/09 02:33:06;;;;;;;9.88;4.53;;;;;;;-143.29;100.00;62188.47;5035033;28;20124;-89
2023/10/09 02:35:44;;;;;;;9.60;4.28;;;;;;;-143.29;100.00;62188.47;5052789;28;20087;-89
2023/10/09 02:38:11;;;;;;;8.82;5.78;;;;;;;-143.29;100.00;62188.47;5071427;28;20028;-89
2023/10/09 02:41:20;;;;;;;11.65;6.07;;;;;;;-143.29;100.00;62188.47;5072655;28;20024;-89
2023/10/09 02:43:26;;;;;;;13.48;5.72;;;;;;;-143.29;100.00;62188.47;5063943;28;20037;-89
2023/10/09 02:45:51;;;;;;;7.93;4.97;;;;;;;-143.29;100.00;62188.47;5072662;28;20028;-89
2023/10/09 02:48:19;;;;;;;9.85;5.38;;;;;;;-143.29;100.00;62188.47;5072791;28;20356;-89
2023/10/09 02:50:46;;;;;;;9.88;5.00;;;;;;;-143.29;100.00;62188.47;5070432;28;20028;-89
2023/10/09 02:53:18;;;;;;;10.15;5.65;;;;;;;-143.29;100.00;62188.47;5069676;28;20085;-89
2023/10/09 02:56:11;;;;;;;11.25;5.85;;;;;;;-143.29;100.00;62188.47;5071921;28;20017;-89
2023/10/09 02:58:32;;;;;;;11.65;5.32;;;;;;;-143.29;100.00;62188.47;5071526;28;20035;-90
2023/10/09 03:00:59;;;;;;;10.65;6.50;;;;;;;-143.29;100.00;62188.47;5072255;28;20482;-90
2023/10/09 03:03:25;;;;;;;11.75;5.63;;;;;;;-143.29;100.00;62188.47;5054384;28;20091;-89
2023/10/09 03:05:50;;;;;;;11.80;5.68;;;;;;;-143.29;100.00;62188.47;5072346;28;20467;-89
2023/10/09 03:08:19;;;;;;;11.07;6.10;;;;;;;-143.29;100.00;62188.47;5059209;28;20459;-89
2023/10/09 03:10:44;;;;;;;9.20;5.95;;;;;;;-143.29;100.00;62188.47;5062012;28;20109;-89
2023/10/09 03:13:09;;;;;;;12.68;6.95;;;;;;;-143.29;100.00;62188.47;5051797;28;20079;-89
2023/10/09 03:15:35;;;;;;;14.43;6.78;;;;;;;-143.29;100.00;62188.47;5072337;28;20024;-89
2023/10/09 03:18:04;;;;;;;12.48;6.95;;;;;;;-143.29;100.00;62188.47;5072070;28;20021;-89
2023/10/09 03:20:30;;;;;;;12.07;6.53;;;;;;;-143.29;100.00;62188.47;5072600;28;20036;-89
2023/10/09 03:22:55;;;;;;;12.20;6.82;;;;;;;-143.29;100.00;62188.47;5072196;28;20027;-89
2023/10/09 03:25:24;;;;;;;12.43;7.45;;;;;;;-143.29;100.00;62188.47;5069014;28;20021;-89
2023/10/09 03:27:51;;;;;;;14.82;6.35;;;;;;;-143.29;100.00;62188.47;5051191;28;20029;-89
2023/10/09 03:30:23;;;;;;;12.13;6.75;;;;;;;-143.29;100.00;62188.47;5052003;28;20364;-90
2023/10/09 03:32:52;;;;;;;12.52;6.72;;;;;;;-143.29;100.00;62188.47;5051838;28;20017;-89
2023/10/09 03:35:24;;;;;;;14.90;7.40;;;;;;;-143.29;100.00;62188.47;5051808;28;20021;-89
2023/10/09 03:37:57;;;;;;;15.45;8.27;;;;;;;-143.29;100.00;62188.47;5050626;28;20017;-90
2023/10/09 03:40:23;;;;;;;13.20;7.15;;;;;;;-143.29;100.00;62188.47;5035497;28;20561;-91
2023/10/09 03:42:48;;;;;;;20.10;7.80;;;;;;;-143.29;100.00;62188.47;5051255;28;20031;-91
2023/10/09 03:45:27;;;;;;;12.95;7.40;;;;;;;-143.29;100.00;62188.47;5051925;28;20029;-91
2023/10/09 03:48:01;;;;;;;15.98;7.63;;;;;;;-143.29;100.00;62188.47;5051853;28;20013;-91
2023/10/09 03:50:30;;;;;;;19.48;8.63;;;;;;;-143.29;100.00;62188.47;5051693;28;20024;-90
2023/10/09 03:52:55;;;;;;;22.45;9.55;;;;;;;-143.29;100.00;62188.47;5051652;28;20021;-91
2023/10/09 03:55:27;;;;;;;23.48;10.75;;;;;;;-143.29;100.00;62188.47;5050990;28;20383;-91
2023/10/09 03:57:54;;;;;;;22.08;11.32;;;;;;;-143.29;100.00;62188.47;5031591;28;20121;-91
2023/10/09 04:00:28;;;;;;;20.10;11.70;;;;;;;-143.29;100.00;62188.47;5014192;28;20483;-91
2023/10/09 04:02:58;;;;;;;21.10;12.55;;;;;;;-143.29;100.00;62188.47;5031709;28;20049;-91
2023/10/09 04:05:25;;;;;;;24.85;13.55;;;;;;;-143.29;100.00;62188.47;5031691;28;20514;-90
2023/10/09 04:07:53;;;;;;;19.77;11.77;;;;;;;-143.29;100.00;62188.47;5031599;28;20399;-90
2023/10/09 04:10:43;;;;;;;22.75;12.95;;;;;;;-143.29;100.00;62188.47;5033400;28;20629;-92
2023/10/09 04:13:12;;;;;;;29.90;14.85;;;;;;;-143.29;100.00;62188.47;5051450;28;20025;-91
2023/10/09 04:15:38;;;;;;;24.90;13.40;;;;;;;-143.29;100.00;62188.47;5033535;28;20025;-91
2023/10/09 04:18:06;;;;;;;33.03;17.00;;;;;;;-143.29;100.00;62188.47;5051514;28;20501;-90
2023/10/09 04:23:04;;;;;;;31.98;18.15;;;;;;;-143.29;100.00;62188.47;5051387;28;20032;-91
2023/10/09 04:25:40;;;;;;;32.45;17.20;;;;;;;-143.29;100.00;62188.47;5048920;28;20035;-91
2023/10/09 04:28:09;;;;;;;35.60;16.13;;;;;;;-143.29;100.00;62188.47;5051230;28;20025;-90
2023/10/09 04:30:46;;;;;;;31.80;17.88;;;;;;;-143.29;100.00;62188.47;5051464;28;20025;-91
2023/10/09 04:36:26;;;;;;;31.33;17.75;;;;;;;-143.29;100.00;62188.47;5051463;28;20029;-91
2023/10/09 04:41:33;;;;;;;33.97;17.63;;;;;;;-143.29;100.00;62188.47;5050133;28;20025;-90
2023/10/09 04:46:43;;;;;;;40.55;19.15;;;;;;;-143.29;100.00;62188.47;5071295;28;20021;-90
2023/10/09 04:49:27;;;;;;;29.75;18.48;;;;;;;-143.29;100.00;62188.47;5071248;28;20059;-90
2023/10/09 04:52:18;;;;;;;30.25;17.35;;;;;;;-143.29;100.00;62188.47;5072861;28;20017;-91
2023/10/09 04:55:18;;;;;;;29.65;17.38;;;;;;;-143.29;100.00;62188.47;5075155;28;20052;-90
2023/10/09 04:57:45;;;;;;;38.47;19.05;;;;;;;-143.29;100.00;62188.47;5060055;28;20040;-90
2023/10/09 05:03:12;;;;;;;33.80;18.05;;;;;;;-143.29;100.00;62188.47;5045620;28;20025;-90
2023/10/09 05:16:26;;;;;;;31.88;17.63;;;;;;;-143.29;100.00;62188.47;5056688;28;20025;-90
2023/10/09 05:18:56;;;;;;;32.03;20.00;;;;;;;-143.29;100.00;62188.47;5053921;28;20089;-91
2023/10/09 05:32:54;;;;;;;49.80;24.98;;;;;;;-143.29;100.00;62188.47;5021977;28;20045;-90
2023/10/09 05:37:33;;;;;;;47.65;25.90;;;;;;;-143.29;100.00;62188.47;5048528;28;20049;-91
2023/10/09 05:47:54;;;;;;;46.13;22.88;;;;;;;-143.29;100.00;62188.47;5054490;28;20025;-91
2023/10/09 05:50:34;;;;;;;47.83;23.70;;;;;;;-143.29;100.00;62188.47;5054413;28;20025;-90
2023/10/09 06:03:23;;;;;;;35.88;20.80;;;;;;;-143.29;100.00;62188.47;5032804;28;20079;-91
2023/10/09 06:11:39;;;;;;;36.65;21.35;;;;;;;-143.29;100.00;62188.47;5053808;28;20471;-91
2023/10/09 06:19:27;;;;;;;42.45;23.52;;;;;;;-143.29;100.00;62188.47;5053442;28;20048;-91
2023/10/09 06:24:41;;;;;;;37.78;24.10;;;;;;;-143.29;100.00;62188.47;5053415;28;20033;-91
2023/10/09 06:34:51;;;;;;;45.13;24.88;;;;;;;-143.29;100.00;62188.47;5073077;28;20032;-90
2023/10/09 06:43:08;;;;;;;39.05;22.88;;;;;;;-143.29;100.00;62188.47;5073025;28;20104;-91
2023/10/09 06:45:18;;;;;;;47.92;25.88;;;;;;;-143.29;100.00;62188.47;5059586;28;20040;-91
2023/10/09 06:48:07;;;;;;;;;;;;;;;-143.29;100.00;62188.47;5073255;28;20032;-91
2023/10/09 06:53:25;;;;;;;36.85;23.08;;;;;;;-143.29;100.00;62188.47;5073124;28;20089;-91
2023/10/09 06:56:04;;;;;;;36.75;21.75;;;;;;;-143.29;100.00;62188.47;5072834;28;20024;-90
2023/10/09 06:58:41;;;;;;;45.45;24.95;;;;;;;-143.29;100.00;62188.47;5054868;28;20364;-91
2023/10/09 07:01:19;;;;;;;44.30;25.30;;;;;;;-143.29;100.00;62188.47;5057779;28;20029;-91
2023/10/09 07:03:59;;;;;;;36.08;20.80;;;;;;;-143.29;100.00;62188.47;5034550;28;20114;-91
2023/10/09 07:06:48;;;;;;;39.97;23.10;;;;;;;-143.29;100.00;62188.47;5034553;28;20021;-91
2023/10/09 07:14:08;;;;;;;45.10;24.90;;;;;;;-143.29;100.00;62188.47;5051985;28;20422;-91
2023/10/09 07:16:56;;;;;;;41.78;24.88;;;;;;;-143.29;100.00;62188.47;5058283;28;20094;-91
2023/10/09 07:19:57;;;;;;;45.38;26.58;;;;;;;-143.29;100.00;62188.47;5033649;28;20055;-91
2023/10/09 07:27:45;;;;;;;34.55;21.45;;;;;;;-143.29;100.00;62188.47;5020865;28;20051;-91
2023/10/09 07:33:03;;;;;;;43.05;21.50;;;;;;;-143.29;100.00;62188.47;5059111;28;20028;-91
2023/10/09 07:38:19;;;;;;;33.75;19.83;;;;;;;-143.29;100.00;62188.47;5052292;28;20040;-91
2023/10/09 07:43:45;;;;;;;31.38;18.13;;;;;;;-143.29;100.00;62188.47;5051984;28;20036;-91
2023/10/09 07:46:30;;;;;;;29.58;16.98;;;;;;;-143.29;100.00;62188.47;5051943;28;20099;-91
2023/10/09 07:48:56;;;;;;;24.42;15.90;;;;;;;-143.29;100.00;62188.47;5052222;28;20020;-91
2023/10/09 07:51:30;;;;;;;30.67;18.75;;;;;;;-143.29;100.00;62188.47;5063428;28;20098;-90
2023/10/09 07:53:57;;;;;;;43.15;21.33;;;;;;;-143.29;100.00;62188.47;5053962;28;20024;-91
2023/10/09 07:56:30;;;;;;;32.83;17.77;;;;;;;-143.29;100.00;62188.47;5072026;28;20036;-91
2023/10/09 07:59:03;;;;;;;29.38;17.60;;;;;;;-143.29;100.00;62188.47;5053763;28;20539;-91
2023/10/09 08:03:57;;;;;;;32.72;18.77;;;;;;;-143.29;100.00;62188.47;5071895;28;20075;-91
2023/10/09 08:06:39;;;;;;;32.30;18.50;;;;;;;-143.29;100.00;62188.47;5068896;28;20071;-91
2023/10/09 08:17:11;;;;;;;33.83;16.98;;;;;;;-143.29;100.00;62188.47;5063515;28;20441;-91
2023/10/09 08:20:11;;;;;;;29.83;18.20;;;;;;;-143.29;100.00;62188.47;5051241;28;20094;-91
2023/10/09 08:22:52;;;;;;;24.45;15.80;;;;;;;-143.29;100.00;62188.47;5051740;28;20080;-91
2023/10/09 08:25:35;;;;;;;25.55;15.07;;;;;;;-143.29;100.00;62188.47;5033590;28;20057;-91
2023/10/09 08:35:55;;;;;;;25.35;14.57;;;;;;;-143.29;100.00;62188.47;5075382;28;20475;-91
2023/10/09 08:38:24;;;;;;;24.60;12.63;;;;;;;-143.29;100.00;62188.47;5073232;28;20085;-91
2023/10/09 08:40:54;;;;;;;25.33;13.55;;;;;;;-143.29;100.00;62188.47;5036292;28;20029;-91
2023/10/09 08:43:20;;;;;;;23.67;13.75;;;;;;;-143.29;100.00;62188.47;5033631;28;20583;-91
2023/10/09 08:45:47;;;;;;;23.58;12.75;;;;;;;-143.29;100.00;62188.47;5048737;28;20017;-92
2023/10/09 08:48:15;;;;;;;20.45;12.63;;;;;;;-143.29;100.00;62188.47;5054996;28;20040;-94
2023/10/09 08:50:45;;;;;;;20.83;12.05;;;;;;;-143.29;100.00;62188.47;5055063;28;20017;-91
2023/10/09 08:53:11;;;;;;;20.80;11.02;;;;;;;-143.29;100.00;62188.47;5036517;28;20017;-92
2023/10/09 08:55:40;;;;;;;22.40;11.82;;;;;;;-143.29;100.00;62188.47;5054160;28;20523;-90
2023/10/09 08:58:20;;;;;;;16.70;11.07;;;;;;;-143.29;100.00;62188.47;5056706;28;20033;-91
2023/10/09 09:00:46;;;;;;;18.83;11.88;;;;;;;-143.29;100.00;62188.47;5056910;28;20073;-91
2023/10/09 09:03:16;;;;;;;23.33;13.27;;;;;;;-143.29;100.00;62188.47;5074770;28;20101;-90
2023/10/09 09:06:02;;;;;;;27.05;13.60;;;;;;;-143.29;100.00;62188.47;5056666;28;20024;-91
2023/10/09 09:08:29;;;;;;;21.95;12.95;;;;;;;-143.29;100.00;62188.47;5073428;28;20029;-91
2023/10/09 09:11:17;;;;;;;20.95;13.32;;;;;;;-143.29;100.00;62188.47;5067186;28;20095;-91
2023/10/09 09:14:07;;;;;;;24.65;13.32;;;;;;;-143.29;100.00;62188.47;5049219;28;20082;-91
2023/10/09 09:16:36;;;;;;;24.77;13.60;;;;;;;-143.29;100.00;62188.47;5053777;28;20486;-92
2023/10/09 09:22:14;;;;;;;20.98;12.40;;;;;;;-143.29;100.00;62188.47;5052287;28;20095;-90
2023/10/09 09:24:47;;;;;;;29.25;15.15;;;;;;;-143.29;100.00;62188.47;5054456;28;20031;-91
2023/10/09 09:27:12;;;;;;;23.02;12.90;;;;;;;-143.29;100.00;62188.47;5034218;28;20017;-92
2023/10/09 09:29:39;;;;;;;22.73;11.50;;;;;;;-143.29;100.00;62188.47;5050699;28;20083;-92
2023/10/09 09:32:18;;;;;;;21.55;11.25;;;;;;;-143.29;100.00;62188.47;5033642;28;20021;-92
2023/10/09 09:35:04;;;;;;;20.98;11.35;;;;;;;-143.29;100.00;62188.47;5049654;28;20021;-91
2023/10/09 09:37:38;;;;;;;21.88;13.05;;;;;;;-143.29;100.00;62188.47;5032807;28;20043;-90
2023/10/09 09:42:50;;;;;;;22.27;11.45;;;;;;;-143.29;100.00;62188.47;5054244;28;20155;-92
2023/10/09 09:45:23;;;;;;;20.55;12.13;;;;;;;-143.29;100.00;62188.47;5052783;28;20025;-92
2023/10/09 09:47:52;;;;;;;21.35;13.65;;;;;;;-143.29;100.00;62188.47;5062565;28;20020;-94
2023/10/09 09:50:24;;;;;;;22.67;13.02;;;;;;;-143.29;100.00;62188.47;5073866;28;20486;-91
2023/10/09 09:52:55;;;;;;;20.60;12.23;;;;;;;-143.29;100.00;62188.47;5073323;28;20048;-92
2023/10/09 09:55:30;;;;;;;19.05;12.15;;;;;;;-143.29;100.00;62188.47;5074035;28;20029;-91
2023/10/09 09:57:57;;;;;;;22.90;12.55;;;;;;;-143.29;100.00;62188.47;5056249;28;20017;-91
2023/10/09 10:03:18;;;;;;;18.08;11.80;;;;;;;-143.29;100.00;62188.47;5043269;28;20021;-92
2023/10/09 10:05:48;;;;;;;20.92;12.95;;;;;;;-143.29;100.00;62188.47;5053609;28;20017;-90
2023/10/09 10:08:20;;;;;;;18.50;11.77;;;;;;;-143.29;100.00;62188.47;5051093;28;20032;-90
2023/10/09 10:10:53;;;;;;;19.13;11.10;;;;;;;-143.29;100.00;62188.47;5053017;28;20036;-90
2023/10/09 10:13:40;;;;;;;22.58;11.38;;;;;;;-143.29;100.00;62188.47;5053368;28;20029;-90
2023/10/09 10:16:19;;;;;;;17.48;9.45;;;;;;;-143.29;100.00;62188.47;5053764;28;20025;-90
2023/10/09 10:18:59;;;;;;;18.23;11.13;;;;;;;-143.29;100.00;62188.47;5052903;28;20025;-90
2023/10/09 10:24:05;;;;;;;18.33;10.82;;;;;;;-143.29;100.00;62188.47;5053077;28;20486;-89
2023/10/09 10:26:33;;;;;;;17.00;10.23;;;;;;;-143.29;100.00;62188.47;5034445;28;20112;-90
2023/10/09 10:29:23;;;;;;;19.63;10.00;;;;;;;-143.29;100.00;62188.47;5073130;28;20162;-91
2023/10/09 10:31:55;;;;;;;15.45;8.98;;;;;;;-143.29;100.00;62188.47;5073229;28;20027;-91
2023/10/09 10:34:23;;;;;;;20.58;10.32;;;;;;;-143.29;100.00;62188.47;5073291;28;20103;-92
2023/10/09 10:36:52;;;;;;;18.90;10.05;;;;;;;-143.29;100.00;62188.47;5072105;28;20028;-91
2023/10/09 10:41:54;;;;;;;18.52;10.05;;;;;;;-143.29;100.00;62188.47;5055505;28;20098;-90
2023/10/09 10:44:38;;;;;;;17.65;11.63;;;;;;;-143.29;100.00;62188.47;5048796;28;20036;-91
2023/10/09 10:47:06;;;;;;;17.10;10.15;;;;;;;-143.29;100.00;62188.47;5034625;28;20040;-91
2023/10/09 10:49:40;;;;;;;19.25;11.40;;;;;;;-143.29;100.00;62188.47;5050805;28;20100;-92
2023/10/09 10:52:18;;;;;;;18.92;12.00;;;;;;;-143.29;100.00;62188.47;5046554;28;20036;-91
2023/10/09 10:57:29;;;;;;;21.27;11.32;;;;;;;-143.29;100.00;62188.47;5072702;28;20078;-90
2023/10/09 11:02:47;;;;;;;18.05;9.40;;;;;;;-143.29;100.00;62188.47;5032610;28;20095;-91
2023/10/09 11:05:25;;;;;;;22.67;9.18;;;;;;;-143.29;100.00;62188.47;5032761;28;20108;-90
2023/10/09 11:07:56;;;;;;;15.95;8.82;;;;;;;-143.29;100.00;62188.47;5031852;28;20463;-92
2023/10/09 11:10:27;;;;;;;22.23;8.57;;;;;;;-143.29;100.00;62188.47;5047458;28;20112;-92
2023/10/09 11:15:44;;;;;;;16.48;8.18;;;;;;;-143.29;100.00;62188.47;5052033;28;20032;-91
2023/10/09 11:18:19;;;;;;;9.57;7.03;;;;;;;-143.29;100.00;62188.47;5032819;28;20095;-91
2023/10/09 11:26:21;;;;;;;11.90;6.45;;;;;;;-143.29;100.00;62188.47;5051653;28;20427;-92
2023/10/09 11:28:57;;;;;;;10.77;5.20;;;;;;;-143.29;100.00;62188.47;5041846;28;20028;-90
2023/10/09 11:31:23;;;;;;;9.05;4.85;;;;;;;-143.29;100.00;62188.47;5053429;28;20044;-91
2023/10/09 11:33:53;;;;;;;11.80;5.55;;;;;;;-143.29;100.00;62188.47;5072131;28;20028;-90
2023/10/09 11:36:31;;;;;;;10.82;5.32;;;;;;;-143.29;100.00;62188.47;5072057;28;20032;-91
2023/10/09 11:39:13;;;;;;;7.95;4.20;;;;;;;-143.29;100.00;62188.47;5054074;28;20079;-90
2023/10/09 11:41:42;;;;;;;8.18;4.70;;;;;;;-143.29;100.00;62188.47;5055391;28;20032;-90
2023/10/09 11:44:18;;;;;;;10.70;4.85;;;;;;;-143.29;100.00;62188.47;5071993;28;20033;-90
2023/10/09 11:46:58;;;;;;;12.55;5.53;;;;;;;-143.29;100.00;62188.47;5072113;28;20035;-90
2023/10/09 11:49:32;;;;;;;9.57;5.05;;;;;;;-143.29;100.00;62188.47;5054133;28;20098;-90
2023/10/09 11:54:38;;;;;;;8.27;5.57;;;;;;;-143.29;100.00;62188.47;5071996;28;20029;-90
2023/10/09 11:57:03;;;;;;;9.38;6.45;;;;;;;-143.29;100.00;62188.47;5053849;28;20399;-90
2023/10/09 11:59:37;;;;;;;14.57;5.93;;;;;;;-143.29;100.00;62188.47;5053603;28;20520;-90
2023/10/09 12:02:11;;;;;;;10.70;5.80;;;;;;;-143.29;100.00;62188.47;5071786;28;20032;-90
2023/10/09 12:04:36;;;;;;;14.35;6.25;;;;;;;-143.29;100.00;62188.47;5071935;28;20017;-88
2023/10/09 12:07:08;;;;;;;13.10;6.45;;;;;;;-143.29;100.00;62188.47;5053615;28;20036;-88
2023/10/09 12:09:34;;;;;;;13.13;6.50;;;;;;;-143.29;100.00;62188.47;5051737;28;20025;-88
2023/10/09 12:12:08;;;;;;;10.13;5.07;;;;;;;-143.29;100.00;62188.47;5051643;28;20444;-88
2023/10/09 12:14:34;;;;;;;11.95;5.20;;;;;;;-143.29;100.00;62188.47;5050691;28;20116;-88
2023/10/09 12:17:05;;;;;;;7.68;4.70;;;;;;;-143.29;100.00;62188.47;5068811;28;20526;-88
2023/10/09 12:19:38;;;;;;;6.57;4.10;;;;;;;-143.29;100.00;62188.47;5071617;28;20072;-88
2023/10/09 12:22:06;;;;;;;8.77;4.20;;;;;;;-143.29;100.00;62188.47;5071449;28;20041;-88
2023/10/09 12:24:35;;;;;;;7.18;3.40;;;;;;;-143.29;100.00;62188.47;5071633;28;20028;-88
2023/10/09 12:27:00;;;;;;;7.25;3.92;;;;;;;-143.29;100.00;62188.47;5071664;28;20405;-88
2023/10/09 12:29:30;;;;;;;9.77;4.53;;;;;;;-143.29;100.00;62188.47;5053601;28;20029;-88
2023/10/09 12:31:59;;;;;;;7.90;4.13;;;;;;;-143.29;100.00;62188.47;5036796;28;20032;-88
2023/10/09 12:34:27;;;;;;;9.38;3.90;;;;;;;-143.29;100.00;62188.47;5032498;28;20025;-88
2023/10/09 12:36:54;;;;;;;5.95;3.70;;;;;;;-143.29;100.00;62188.47;5051531;28;20040;-88
2023/10/09 12:39:21;;;;;;;8.27;4.28;;;;;;;-143.29;100.00;62188.47;5051532;28;20103;-88
2023/10/09 12:41:48;;;;;;;6.55;3.80;;;;;;;-143.29;100.00;62188.47;5051322;28;20071;-88
2023/10/09 12:44:22;;;;;;;12.82;4.63;;;;;;;-143.29;100.00;62188.47;5051433;28;20490;-88
2023/10/09 12:46:54;;;;;;;10.73;5.50;;;;;;;-143.29;100.00;62188.47;5057628;28;20032;-88
2023/10/09 12:49:25;;;;;;;7.53;4.35;;;;;;;-143.29;100.00;62188.47;5053954;28;20067;-88
2023/10/09 12:51:54;;;;;;;17.45;5.97;;;;;;;-143.29;100.00;62188.47;5051296;28;20406;-88
2023/10/09 12:54:28;;;;;;;10.00;5.75;;;;;;;-143.29;100.00;62188.47;5051144;28;20017;-88
2023/10/09 12:56:55;;;;;;;10.68;5.35;;;;;;;-143.29;100.00;62188.47;5033371;28;20031;-88
2023/10/09 12:59:21;;;;;;;12.20;5.78;;;;;;;-143.29;100.00;62188.47;5051188;28;20029;-87
2023/10/09 13:01:52;;;;;;;11.05;6.05;;;;;;;-143.29;100.00;62188.47;5048806;28;20526;-88
2023/10/09 13:04:21;;;;;;;15.88;5.85;;;;;;;-143.29;100.00;62188.47;5049978;28;20037;-88
2023/10/09 13:06:51;;;;;;;11.20;6.22;;;;;;;-143.29;100.00;62188.47;5051098;28;20112;-88
2023/10/09 13:09:42;;;;;;;11.02;5.65;;;;;;;-143.29;100.00;62188.47;5051152;28;20552;-88
2023/10/09 13:12:07;;;;;;;14.32;6.25;;;;;;;-143.29;100.00;62188.47;5051813;28;20525;-87
2023/10/09 13:14:35;;;;;;;8.73;5.13;;;;;;;-143.29;100.00;62188.47;5054772;28;20028;-88
2023/10/09 13:17:08;;;;;;;12.07;5.55;;;;;;;-143.29;100.00;62188.47;5036740;28;20025;-88
2023/10/09 13:19:33;;;;;;;15.73;5.75;;;;;;;-143.29;100.00;62188.47;5065327;28;20036;-88
2023/10/09 13:22:02;;;;;;;10.55;5.22;;;;;;;-143.29;100.00;62188.47;5056608;28;20028;-88
2023/10/09 13:24:29;;;;;;;15.82;4.72;;;;;;;-143.29;100.00;62188.47;5074796;28;20482;-87
2023/10/09 13:26:58;;;;;;;16.00;5.20;;;;;;;-143.29;100.00;62188.47;5074583;28;20036;-88
2023/10/09 13:29:23;;;;;;;9.40;4.93;;;;;;;-143.29;100.00;62188.47;5074553;28;20363;-87
2023/10/09 13:31:58;;;;;;;9.13;5.38;;;;;;;-143.29;100.00;62188.47;5067407;28;20067;-87
2023/10/09 13:34:27;;;;;;;8.75;5.07;;;;;;;-143.29;100.00;62188.47;5072075;28;20103;-88
2023/10/09 13:36:53;;;;;;;6.85;4.07;;;;;;;-143.29;100.00;62188.47;5056435;28;20108;-88
2023/10/09 13:39:26;;;;;;;9.82;5.22;;;;;;;-143.29;100.00;62188.47;5071873;28;20115;-87
2023/10/09 13:41:59;;;;;;;8.75;3.97;;;;;;;-143.29;100.00;62188.47;5074153;28;20064;-88
2023/10/09 13:44:36;;;;;;;9.55;4.32;;;;;;;-143.29;100.00;62188.47;5074353;28;20383;-88
2023/10/09 13:47:08;;;;;;;7.22;3.60;;;;;;;-143.29;100.00;62188.47;5074571;28;20021;-87
2023/10/09 13:49:37;;;;;;;9.88;3.95;;;;;;;-143.29;100.00;62188.47;5056222;28;20078;-87
2023/10/09 13:52:03;;;;;;;11.23;4.85;;;;;;;-143.29;100.00;62188.47;5071640;28;20028;-88
2023/10/09 13:57:03;;;;;;;8.05;3.60;;;;;;;-143.29;100.00;62188.47;5074224;28;20028;-88
2023/10/09 13:59:29;;;;;;;6.07;3.75;;;;;;;-143.29;100.00;62188.47;5073975;28;20109;-88
2023/10/09 14:01:55;;;;;;;9.38;4.40;;;;;;;-143.29;100.00;62188.47;5073791;28;20484;-87
2023/10/09 14:04:24;;;;;;;7.03;3.72;;;;;;;-143.29;100.00;62188.47;5073688;28;20016;-87
2023/10/09 14:07:01;;;;;;;7.22;3.50;;;;;;;-143.29;100.00;62188.47;5070924;28;20482;-88